Time;durP1;ratioP1;P1;durP2;ratioP2;P2;SDS_P1;SDS_P2;PMS_P1;PMS_P2;Temp;Humidity;BMP_temperature;BMP_pressure;BME280_temperature;BME280_humidity;BME280_pressure;Samples;Min_cycle;Max_cycle;Signal;HPM_P1;HPM_P2
2021/12/31 00:01:04;;;;;;;;;;;11.60;99.90;;;;;;5050399;28;20032;-67
2021/12/31 00:03:30;;;;;;;;;;;11.60;99.90;;;;;;5045655;28;19932;-68
2021/12/31 00:05:55;;;;;;;;;;;11.60;99.90;;;;;;5045883;28;20425;-68
2021/12/31 00:08:21;;;;;;;;;;;11.60;99.90;;;;;;5051967;28;19920;-67
2021/12/31 00:10:46;;;;;;;;;;;11.60;99.90;;;;;;5051386;28;19913;-67
2021/12/31 00:13:12;;;;;;;;;;;11.60;99.90;;;;;;5045808;28;20285;-67
2021/12/31 00:15:37;;;;;;;;;;;11.60;99.90;;;;;;5033366;28;19928;-67
2021/12/31 00:18:03;;;;;;;;;;;11.60;99.90;;;;;;5047238;28;20361;-67
2021/12/31 00:20:29;;;;;;;;;;;11.60;99.90;;;;;;5047976;28;19949;-67
2021/12/31 00:25:30;;;;;;;;;;;11.60;99.90;;;;;;5052161;28;19924;-68
2021/12/31 00:27:55;;;;;;;;;;;11.60;99.90;;;;;;5048487;28;19909;-68
2021/12/31 00:30:21;;;;;;;;;;;11.50;99.90;;;;;;5047821;28;19917;-68
2021/12/31 00:32:47;;;;;;;;;;;11.60;99.90;;;;;;5052431;28;19956;-67
2021/12/31 00:35:12;;;;;;;;;;;11.50;99.90;;;;;;5045580;28;19913;-67
2021/12/31 00:37:38;;;;;;;;;;;11.60;99.90;;;;;;5049055;28;19916;-68
2021/12/31 00:40:05;;;;;;;;;;;11.60;99.90;;;;;;5047847;28;19927;-67
2021/12/31 00:42:31;;;;;;;;;;;11.60;99.90;;;;;;5050594;28;19916;-68
2021/12/31 00:44:56;;;;;;;;;;;11.50;99.90;;;;;;5049851;28;19920;-67
2021/12/31 00:47:22;;;;;;;;;;;11.50;99.90;;;;;;5047294;28;19921;-68
2021/12/31 00:49:47;;;;;;;;;;;11.50;99.90;;;;;;5048175;28;20646;-68
2021/12/31 00:52:13;;;;;;;;;;;11.60;99.90;;;;;;5053423;28;19966;-68
2021/12/31 00:54:39;;;;;;;;;;;11.60;99.90;;;;;;5052454;28;19917;-67
2021/12/31 00:57:05;;;;;;;;;;;11.60;99.90;;;;;;5050912;28;20284;-68
2021/12/31 00:59:33;;;;;;;;;;;11.60;99.90;;;;;;5048029;28;19932;-68
2021/12/31 01:01:59;;;;;;;;;;;11.60;99.90;;;;;;5052995;28;19959;-68
2021/12/31 01:04:25;;;;;;;;;;;11.60;99.90;;;;;;5053287;28;19912;-68
2021/12/31 01:06:50;;;;;;;;;;;11.60;99.90;;;;;;5048654;28;20378;-67
2021/12/31 01:09:16;;;;;;;;;;;11.60;99.90;;;;;;5052899;28;19921;-67
2021/12/31 01:11:46;;;;;;;;;;;11.60;99.90;;;;;;5049777;28;19909;-68
2021/12/31 01:14:24;;;;;;;;;;;11.60;99.90;;;;;;5054485;28;20283;-68
2021/12/31 01:16:56;;;;;;;;;;;11.60;99.90;;;;;;5046097;28;19916;-68
2021/12/31 01:21:47;;;;;;;;;;;11.60;99.90;;;;;;5050150;28;20353;-68
2021/12/31 01:24:13;;;;;;;;;;;11.60;99.90;;;;;;5049341;28;19916;-68
2021/12/31 01:26:39;;;;;;;;;;;11.60;99.90;;;;;;5045339;28;19966;-68
2021/12/31 01:29:04;;;;;;;;;;;11.60;99.90;;;;;;5050239;28;19913;-68
2021/12/31 01:31:30;;;;;;;;;;;11.60;99.90;;;;;;5049471;28;19916;-67
2021/12/31 01:33:55;;;;;;;;;;;11.60;99.90;;;;;;5046497;28;20412;-68
2021/12/31 01:36:21;;;;;;;;;;;11.60;99.90;;;;;;5032255;28;19927;-67
2021/12/31 01:38:46;;;;;;;;;;;11.60;99.90;;;;;;5052153;28;20368;-68
2021/12/31 01:41:12;;;;;;;;;;;11.60;99.90;;;;;;5047247;28;19913;-67
2021/12/31 01:43:39;;;;;;;;;;;11.60;99.90;;;;;;5057667;28;19916;-68
2021/12/31 01:46:11;;;;;;;;;;;11.60;99.90;;;;;;5046953;28;20393;-68
2021/12/31 01:48:49;;;;;;;;;;;11.60;99.90;;;;;;5048952;28;19965;-68
2021/12/31 01:51:14;;;;;;;;;;;11.60;99.90;;;;;;5049870;28;20661;-68
2021/12/31 01:53:40;;;;;;;;;;;11.60;99.90;;;;;;5050125;28;20011;-67
2021/12/31 01:56:06;;;;;;;;;;;11.60;99.90;;;;;;5050016;28;19908;-68
2021/12/31 01:58:32;;;;;;;;;;;11.60;99.90;;;;;;5047186;28;19937;-67
2021/12/31 02:01:03;;;;;;;;;;;11.60;99.90;;;;;;5052613;28;19905;-68
2021/12/31 02:03:29;;;;;;;;;;;11.60;99.90;;;;;;5045827;28;19966;-68
2021/12/31 02:05:55;;;;;;;;;;;11.60;99.90;;;;;;5051362;28;19913;-68
2021/12/31 02:08:20;;;;;;;;;;;11.60;99.90;;;;;;5049641;28;19916;-67
2021/12/31 02:10:48;;;;;;;;;;;11.60;99.90;;;;;;5052999;28;19951;-68
2021/12/31 02:13:14;;;;;;;;;;;11.60;99.90;;;;;;5033413;28;20251;-68
2021/12/31 02:15:39;;;;;;;;;;;11.60;99.90;;;;;;5051526;28;19939;-68
2021/12/31 02:18:08;;;;;;;;;;;11.60;99.90;;;;;;5047769;28;19918;-67
2021/12/31 02:20:35;;;;;;;;;;;11.60;99.90;;;;;;5050615;28;19947;-67
2021/12/31 02:23:08;;;;;;;;;;;11.60;99.90;;;;;;5044662;28;19992;-67
2021/12/31 02:25:35;;;;;;;;;;;11.50;99.90;;;;;;5051621;28;20000;-68
2021/12/31 02:28:01;;;;;;;;;;;11.60;99.90;;;;;;5049513;28;19913;-68
2021/12/31 02:30:29;;;;;;;;;;;11.60;99.90;;;;;;5048285;28;19920;-68
2021/12/31 02:32:55;;;;;;;;;;;11.60;99.90;;;;;;5045712;28;19909;-68
2021/12/31 02:35:20;;;;;;;;;;;11.60;99.90;;;;;;5051202;28;20454;-68
2021/12/31 02:37:46;;;;;;;;;;;11.60;99.90;;;;;;5056464;28;19913;-68
2021/12/31 02:40:13;;;;;;;;;;;11.50;99.90;;;;;;5047113;28;19921;-68
2021/12/31 02:42:39;;;;;;;;;;;11.60;99.90;;;;;;5051305;28;19963;-68
2021/12/31 02:45:09;;;;;;;;;;;11.60;99.90;;;;;;5048261;28;19917;-68
2021/12/31 02:47:35;;;;;;;;;;;11.60;99.90;;;;;;5048219;28;20037;-68
2021/12/31 02:50:04;;;;;;;;;;;11.60;99.90;;;;;;5044313;28;19912;-67
2021/12/31 02:52:29;;;;;;;;;;;11.60;99.90;;;;;;5049015;28;20328;-68
2021/12/31 02:54:56;;;;;;;;;;;11.60;99.90;;;;;;5046965;28;19995;-68
2021/12/31 02:57:22;;;;;;;;;;;11.60;99.90;;;;;;5028585;28;19913;-68
2021/12/31 02:59:48;;;;;;;;;;;11.60;99.90;;;;;;5046545;28;20467;-67
2021/12/31 03:02:14;;;;;;;;;;;11.60;99.90;;;;;;5051874;28;19954;-68
2021/12/31 03:04:39;;;;;;;;;;;11.60;99.90;;;;;;5046450;28;19913;-68
2021/12/31 03:07:06;;;;;;;;;;;11.60;99.90;;;;;;5046579;28;19920;-68
2021/12/31 03:09:32;;;;;;;;;;;11.60;99.90;;;;;;5046767;28;19983;-68
2021/12/31 03:11:59;;;;;;;;;;;11.50;99.90;;;;;;5044188;28;20433;-67
2021/12/31 03:14:25;;;;;;;;;;;11.50;99.90;;;;;;5046277;28;20300;-68
2021/12/31 03:16:50;;;;;;;;;;;11.50;99.90;;;;;;5048570;28;20581;-68
2021/12/31 03:19:16;;;;;;;;;;;11.50;99.90;;;;;;5046696;28;19920;-67
2021/12/31 03:21:42;;;;;;;;;;;11.50;99.90;;;;;;5047567;28;19916;-68
2021/12/31 03:24:07;;;;;;;;;;;11.60;99.90;;;;;;5051074;28;20277;-68
2021/12/31 03:26:34;;;;;;;;;;;11.60;99.90;;;;;;5046878;28;19921;-67
2021/12/31 03:29:00;;;;;;;;;;;11.60;99.90;;;;;;5048965;28;19975;-67
2021/12/31 03:31:25;;;;;;;;;;;11.60;99.90;;;;;;5045363;28;19975;-67
2021/12/31 03:33:51;;;;;;;;;;;11.60;99.90;;;;;;5049992;28;20024;-67
2021/12/31 03:36:16;;;;;;;;;;;11.60;99.90;;;;;;5045926;28;19916;-68
2021/12/31 03:38:42;;;;;;;;;;;11.60;99.90;;;;;;5047029;28;19951;-68
2021/12/31 03:41:07;;;;;;;;;;;11.60;99.90;;;;;;5044690;28;19923;-68
2021/12/31 03:43:33;;;;;;;;;;;11.60;99.90;;;;;;5047982;28;19917;-68
2021/12/31 03:45:58;;;;;;;;;;;11.60;99.90;;;;;;5045626;28;19925;-68
2021/12/31 03:48:24;;;;;;;;;;;11.60;99.90;;;;;;5051694;28;19927;-68
2021/12/31 03:50:49;;;;;;;;;;;11.60;99.90;;;;;;5045770;28;19913;-68
2021/12/31 03:53:15;;;;;;;;;;;11.60;99.90;;;;;;5046228;28;19995;-68
2021/12/31 03:55:42;;;;;;;;;;;11.60;99.90;;;;;;5049482;28;20282;-68
2021/12/31 03:58:07;;;;;;;;;;;11.60;99.90;;;;;;5043389;28;20442;-68
2021/12/31 04:00:33;;;;;;;;;;;11.60;99.90;;;;;;5032652;28;19927;-67
2021/12/31 04:03:04;;;;;;;;;;;11.60;99.90;;;;;;5045892;28;20738;-68
2021/12/31 04:05:29;;;;;;;;;;;11.60;99.90;;;;;;5048351;28;20023;-67
2021/12/31 04:07:55;;;;;;;;;;;11.60;99.90;;;;;;5046136;28;20050;-68
2021/12/31 04:10:23;;;;;;;;;;;11.60;99.90;;;;;;5046987;28;19909;-68
2021/12/31 04:12:48;;;;;;;;;;;11.60;99.90;;;;;;5043314;28;19959;-68
2021/12/31 04:15:14;;;;;;;;;;;11.60;99.90;;;;;;5047814;28;20398;-67
2021/12/31 04:17:40;;;;;;;;;;;11.60;99.90;;;;;;5046023;28;20339;-68
2021/12/31 04:20:07;;;;;;;;;;;11.60;99.90;;;;;;5048688;28;19908;-68
2021/12/31 04:22:33;;;;;;;;;;;11.60;99.90;;;;;;5044212;28;20006;-68
2021/12/31 04:24:58;;;;;;;;;;;11.60;99.90;;;;;;5048065;28;19913;-68
2021/12/31 04:27:24;;;;;;;;;;;11.60;99.90;;;;;;5041693;28;19913;-67
2021/12/31 04:29:53;;;;;;;;;;;11.60;99.90;;;;;;5052357;28;19913;-68
2021/12/31 04:32:20;;;;;;;;;;;11.60;99.90;;;;;;5051193;28;20289;-68
2021/12/31 04:34:45;;;;;;;;;;;11.60;99.90;;;;;;5051443;28;20373;-67
2021/12/31 04:37:11;;;;;;;;;;;11.50;99.90;;;;;;5053325;28;20007;-67
2021/12/31 04:39:36;;;;;;;;;;;11.60;99.90;;;;;;5050704;28;19920;-68
2021/12/31 04:42:02;;;;;;;;;;;11.50;99.90;;;;;;5053715;28;19962;-67
2021/12/31 04:44:28;;;;;;;;;;;11.60;99.90;;;;;;5049896;28;19916;-68
2021/12/31 04:46:54;;;;;;;;;;;11.50;99.90;;;;;;5037513;28;20380;-68
2021/12/31 04:49:19;;;;;;;;;;;11.50;99.90;;;;;;5032991;28;21399;-68
2021/12/31 04:51:45;;;;;;;;;;;11.50;99.90;;;;;;5053707;28;19918;-68
2021/12/31 04:54:15;;;;;;;;;;;11.50;99.90;;;;;;5050085;28;20369;-68
2021/12/31 04:56:42;;;;;;;;;;;11.50;99.90;;;;;;5052754;28;19916;-68
2021/12/31 04:59:09;;;;;;;;;;;11.50;99.90;;;;;;5048443;28;20467;-68
2021/12/31 05:01:35;;;;;;;;;;;11.50;99.90;;;;;;5049797;28;20405;-68
2021/12/31 05:04:00;;;;;;;;;;;11.50;99.90;;;;;;5032706;28;19913;-68
2021/12/31 05:06:25;;;;;;;;;;;11.50;99.90;;;;;;5065622;28;19922;-68
2021/12/31 05:08:51;;;;;;;;;;;11.50;99.90;;;;;;5048399;28;20326;-67
2021/12/31 05:11:16;;;;;;;;;;;11.50;99.90;;;;;;5056438;28;20364;-67
2021/12/31 05:13:42;;;;;;;;;;;11.50;99.90;;;;;;5051434;28;19949;-67
2021/12/31 05:16:07;;;;;;;;;;;11.50;99.90;;;;;;5051771;28;19916;-67
2021/12/31 05:18:33;;;;;;;;;;;11.50;99.90;;;;;;5052473;28;19913;-68
2021/12/31 05:20:58;;;;;;;;;;;11.50;99.90;;;;;;5046590;28;20369;-68
2021/12/31 05:23:24;;;;;;;;;;;11.50;99.90;;;;;;5050710;28;19934;-68
2021/12/31 05:25:49;;;;;;;;;;;11.50;99.90;;;;;;5051508;28;19917;-68
2021/12/31 05:28:15;;;;;;;;;;;11.50;99.90;;;;;;5050016;28;20257;-67
2021/12/31 05:30:40;;;;;;;;;;;11.50;99.90;;;;;;5050148;28;19912;-68
2021/12/31 05:33:06;;;;;;;;;;;11.50;99.90;;;;;;5033934;28;19922;-68
2021/12/31 05:35:31;;;;;;;;;;;11.50;99.90;;;;;;5049640;28;19927;-68
2021/12/31 05:37:57;;;;;;;;;;;11.50;99.90;;;;;;5048967;28;19912;-67
2021/12/31 05:40:23;;;;;;;;;;;11.50;99.90;;;;;;5048151;28;19921;-68
2021/12/31 05:42:49;;;;;;;;;;;11.40;99.90;;;;;;5049896;28;19917;-67
2021/12/31 05:45:14;;;;;;;;;;;11.40;99.90;;;;;;5050007;28;19958;-68
2021/12/31 05:47:40;;;;;;;;;;;11.40;99.90;;;;;;5049224;28;19924;-68
2021/12/31 05:50:08;;;;;;;;;;;11.40;99.90;;;;;;5050669;28;19977;-68
2021/12/31 05:52:34;;;;;;;;;;;11.40;99.90;;;;;;5048671;28;19921;-68
2021/12/31 05:54:59;;;;;;;;;;;11.40;99.90;;;;;;5049705;28;19927;-67
2021/12/31 05:57:25;;;;;;;;;;;11.40;99.90;;;;;;5049029;28;20504;-67
2021/12/31 05:59:50;;;;;;;;;;;11.40;99.90;;;;;;5050562;28;20007;-68
2021/12/31 06:02:16;;;;;;;;;;;11.40;99.90;;;;;;5049162;28;19990;-68
2021/12/31 06:04:41;;;;;;;;;;;11.40;99.90;;;;;;5052226;28;19947;-67
2021/12/31 06:07:07;;;;;;;;;;;11.40;99.90;;;;;;5048811;28;20400;-68
2021/12/31 06:09:34;;;;;;;;;;;11.40;99.90;;;;;;5049820;28;20389;-68
2021/12/31 06:12:00;;;;;;;;;;;11.40;99.90;;;;;;5044666;28;20579;-68
2021/12/31 06:14:25;;;;;;;;;;;11.40;99.90;;;;;;5051013;28;19913;-68
2021/12/31 06:16:51;;;;;;;;;;;11.30;99.90;;;;;;5050410;28;19917;-67
2021/12/31 06:19:17;;;;;;;;;;;11.30;99.90;;;;;;5049802;28;19913;-68
2021/12/31 06:21:43;;;;;;;;;;;11.40;99.90;;;;;;5051105;28;19913;-68
2021/12/31 06:24:09;;;;;;;;;;;11.40;99.90;;;;;;5066421;28;20497;-68
2021/12/31 06:26:35;;;;;;;;;;;11.40;99.90;;;;;;5047405;28;19916;-68
2021/12/31 06:29:01;;;;;;;;;;;11.40;99.90;;;;;;5047142;28;19921;-67
2021/12/31 06:31:26;;;;;;;;;;;11.30;99.90;;;;;;5066777;28;19915;-68
2021/12/31 06:33:52;;;;;;;;;;;11.40;99.90;;;;;;5030347;28;19960;-68
2021/12/31 06:36:19;;;;;;;;;;;11.30;99.90;;;;;;5033326;28;19919;-68
2021/12/31 06:38:45;;;;;;;;;;;11.40;99.90;;;;;;5030059;28;19932;-68
2021/12/31 06:41:10;;;;;;;;;;;11.40;99.90;;;;;;5050672;28;19909;-68
2021/12/31 06:43:36;;;;;;;;;;;11.30;99.90;;;;;;5047175;28;19913;-68
2021/12/31 06:46:01;;;;;;;;;;;11.30;99.90;;;;;;5051288;28;19916;-68
2021/12/31 06:48:27;;;;;;;;;;;11.30;99.90;;;;;;5029417;28;20370;-68
2021/12/31 06:50:52;;;;;;;;;;;11.30;99.90;;;;;;5050730;28;19962;-68
2021/12/31 06:53:18;;;;;;;;;;;11.30;99.90;;;;;;5043660;28;19912;-68
2021/12/31 06:55:43;;;;;;;;;;;11.30;99.90;;;;;;5051920;28;19966;-67
2021/12/31 06:58:09;;;;;;;;;;;11.30;99.90;;;;;;5046446;28;19921;-67
2021/12/31 07:00:35;;;;;;;;;;;11.30;99.90;;;;;;5067818;28;19913;-67
2021/12/31 07:03:07;;;;;;;;;;;11.20;99.90;;;;;;5049808;28;20067;-68
2021/12/31 07:05:33;;;;;;;;;;;11.20;99.90;;;;;;5045401;28;19908;-68
2021/12/31 07:07:59;;;;;;;;;;;11.30;99.90;;;;;;5030902;28;20002;-68
2021/12/31 07:10:24;;;;;;;;;;;11.20;99.90;;;;;;5048401;28;20400;-68
2021/12/31 07:12:55;;;;;;;;;;;11.20;99.90;;;;;;5048891;28;19920;-67
2021/12/31 07:15:20;;;;;;;;;;;11.20;99.90;;;;;;5047727;28;20623;-67
2021/12/31 07:17:46;;;;;;;;;;;11.20;99.90;;;;;;5049578;28;19927;-67
2021/12/31 07:20:11;;;;;;;;;;;11.20;99.90;;;;;;5048176;28;19912;-68
2021/12/31 07:22:38;;;;;;;;;;;11.20;99.90;;;;;;5033029;28;19966;-68
2021/12/31 07:25:04;;;;;;;;;;;11.20;99.90;;;;;;5046541;28;19982;-68
2021/12/31 07:27:32;;;;;;;;;;;11.20;99.90;;;;;;5031033;28;19983;-68
2021/12/31 07:29:57;;;;;;;;;;;11.20;99.90;;;;;;5048250;28;19913;-68
2021/12/31 07:32:22;;;;;;;;;;;11.20;99.90;;;;;;5047708;28;20293;-69
2021/12/31 07:34:48;;;;;;;;;;;11.20;99.90;;;;;;5046280;28;19913;-68
2021/12/31 07:37:13;;;;;;;;;;;11.20;99.90;;;;;;5047014;28;19952;-68
2021/12/31 07:39:46;;;;;;;;;;;11.20;99.90;;;;;;5046687;28;19975;-68
2021/12/31 07:42:11;;;;;;;;;;;11.20;99.90;;;;;;5049276;28;20312;-68
2021/12/31 07:44:37;;;;;;;;;;;11.10;99.90;;;;;;5048868;28;19917;-68
2021/12/31 07:47:03;;;;;;;;;;;11.10;99.90;;;;;;5047302;28;20074;-68
2021/12/31 07:49:29;;;;;;;;;;;11.10;99.90;;;;;;5034889;28;19920;-68
2021/12/31 07:51:54;;;;;;;;;;;11.10;99.90;;;;;;5045811;28;20301;-68
2021/12/31 07:54:20;;;;;;;;;;;11.10;99.90;;;;;;5048713;28;19920;-68
2021/12/31 07:56:45;;;;;;;;;;;11.10;99.90;;;;;;5040735;28;19916;-68
2021/12/31 07:59:11;;;;;;;;;;;11.10;99.90;;;;;;5047847;28;19974;-68
2021/12/31 08:01:36;;;;;;;;;;;11.10;99.90;;;;;;5061633;28;20385;-68
2021/12/31 08:04:02;;;;;;;;;;;11.10;99.90;;;;;;5051794;28;20370;-68
2021/12/31 08:06:28;;;;;;;;;;;11.10;99.90;;;;;;5047942;28;19921;-67
2021/12/31 08:08:53;;;;;;;;;;;11.10;99.90;;;;;;5051712;28;19999;-67
2021/12/31 08:11:19;;;;;;;;;;;11.10;99.90;;;;;;5049354;28;20026;-67
2021/12/31 08:13:44;;;;;;;;;;;11.10;99.90;;;;;;5066692;28;19916;-67
2021/12/31 08:16:10;;;;;;;;;;;11.10;99.90;;;;;;5049785;28;19920;-67
2021/12/31 08:18:35;;;;;;;;;;;11.10;99.90;;;;;;5051884;28;20455;-68
2021/12/31 08:21:01;;;;;;;;;;;11.10;99.90;;;;;;5052000;28;19956;-67
2021/12/31 08:23:26;;;;;;;;;;;11.10;99.90;;;;;;5049836;28;19920;-67
2021/12/31 08:25:52;;;;;;;;;;;11.10;99.90;;;;;;5051096;28;19939;-67
2021/12/31 08:28:18;;;;;;;;;;;11.10;99.90;;;;;;5049641;28;20386;-67
2021/12/31 08:30:43;;;;;;;;;;;11.10;99.90;;;;;;5052540;28;19919;-67
2021/12/31 08:33:09;;;;;;;;;;;11.10;99.90;;;;;;5048611;28;19928;-67
2021/12/31 08:35:35;;;;;;;;;;;11.10;99.90;;;;;;5053532;28;20001;-67
2021/12/31 08:38:00;;;;;;;;;;;11.10;99.90;;;;;;5030356;28;20094;-67
2021/12/31 08:40:26;;;;;;;;;;;11.10;99.90;;;;;;5052847;28;19970;-67
2021/12/31 08:42:52;;;;;;;;;;;11.00;99.90;;;;;;5047343;28;19909;-67
2021/12/31 08:45:18;;;;;;;;;;;11.10;99.90;;;;;;5055172;28;19994;-67
2021/12/31 08:47:43;;;;;;;;;;;11.10;99.90;;;;;;5030904;28;20662;-67
2021/12/31 08:50:09;;;;;;;;;;;11.10;99.90;;;;;;5052364;28;19929;-67
2021/12/31 08:52:35;;;;;;;;;;;11.10;99.90;;;;;;5047354;28;19921;-67
2021/12/31 08:55:01;;;;;;;;;;;11.10;99.90;;;;;;5046850;28;20251;-67
2021/12/31 08:57:26;;;;;;;;;;;11.10;99.90;;;;;;5048351;28;19924;-67
2021/12/31 08:59:52;;;;;;;;;;;11.10;99.90;;;;;;5048024;28;19909;-67
2021/12/31 09:02:17;;;;;;;;;;;11.10;99.90;;;;;;5049500;28;19919;-67
2021/12/31 09:04:43;;;;;;;;;;;11.10;99.90;;;;;;5044455;28;19921;-67
2021/12/31 09:07:08;;;;;;;;;;;11.10;99.90;;;;;;5047311;28;20293;-67
2021/12/31 09:09:34;;;;;;;;;;;11.10;99.90;;;;;;5046954;28;19916;-67
2021/12/31 09:11:59;;;;;;;;;;;11.10;99.90;;;;;;5052437;28;19938;-67
2021/12/31 09:14:25;;;;;;;;;;;11.10;99.90;;;;;;5047567;28;20444;-67
2021/12/31 09:16:51;;;;;;;;;;;11.10;99.90;;;;;;5049805;28;20313;-67
2021/12/31 09:19:17;;;;;;;;;;;11.10;99.90;;;;;;5048436;28;19913;-67
2021/12/31 09:21:42;;;;;;;;;;;11.20;99.90;;;;;;5029733;28;19921;-67
2021/12/31 09:24:08;;;;;;;;;;;11.20;99.90;;;;;;5046577;28;20267;-67
2021/12/31 09:26:33;;;;;;;;;;;11.20;99.90;;;;;;5048555;28;19917;-67
2021/12/31 09:28:59;;;;;;;;;;;11.20;99.90;;;;;;5049716;28;19966;-67
2021/12/31 09:31:24;;;;;;;;;;;11.20;99.90;;;;;;5054136;28;20460;-67
2021/12/31 09:33:50;;;;;;;;;;;11.20;99.90;;;;;;5049728;28;19922;-67
2021/12/31 09:36:15;;;;;;;;;;;11.20;99.90;;;;;;5050671;28;19959;-67
2021/12/31 09:38:41;;;;;;;;;;;11.20;99.90;;;;;;5051164;28;19908;-67
2021/12/31 09:41:07;;;;;;;;;;;11.20;99.90;;;;;;5030032;28;19936;-67
2021/12/31 09:43:33;;;;;;;;;;;11.20;99.90;;;;;;5049895;28;20026;-67
2021/12/31 09:45:58;;;;;;;;;;;11.30;99.90;;;;;;5052342;28;19916;-67
2021/12/31 09:48:24;;;;;;;;;;;11.30;99.90;;;;;;5049348;28;20526;-67
2021/12/31 09:50:51;;;;;;;;;;;11.30;99.90;;;;;;5050825;28;19958;-67
2021/12/31 09:53:18;;;;;;;;;;;11.30;99.90;;;;;;5051403;28;19913;-67
2021/12/31 09:55:47;;;;;;;;;;;11.30;99.90;;;;;;5048878;28;19924;-67
2021/12/31 09:58:13;;;;;;;;;;;11.30;99.90;;;;;;5050394;28;19917;-67
2021/12/31 10:00:42;;;;;;;;;;;11.30;99.90;;;;;;5048188;28;19921;-67
2021/12/31 10:03:25;;;;;;;;;;;11.40;99.90;;;;;;5051759;28;19920;-67
2021/12/31 10:05:52;;;;;;;;;;;11.30;99.90;;;;;;5046194;28;19943;-67
2021/12/31 10:08:18;;;;;;;;;;;11.30;99.90;;;;;;5050648;28;19917;-67
2021/12/31 10:11:02;;;;;;;;;;;11.40;99.90;;;;;;5048412;28;19939;-67
2021/12/31 10:13:28;;;;;;;;;;;11.40;99.90;;;;;;5050819;28;19948;-67
2021/12/31 10:15:54;;;;;;;;;;;11.40;99.90;;;;;;5049767;28;21877;-67
2021/12/31 10:18:27;;;;;;;;;;;11.40;99.90;;;;;;5047892;28;20012;-67
2021/12/31 10:20:53;;;;;;;;;;;11.40;99.90;;;;;;5049869;28;19928;-67
2021/12/31 10:23:19;;;;;;;;;;;11.40;99.90;;;;;;5036115;28;20324;-67
2021/12/31 10:25:46;;;;;;;;;;;11.40;99.90;;;;;;5050462;28;19917;-67
2021/12/31 10:28:13;;;;;;;;;;;11.40;99.90;;;;;;5046730;28;19924;-67
2021/12/31 10:30:38;;;;;;;;;;;11.50;99.90;;;;;;5049911;28;19948;-67
2021/12/31 10:33:04;;;;;;;;;;;11.40;99.80;;;;;;5047317;28;19958;-67
2021/12/31 10:35:38;;;;;;;;;;;11.50;99.90;;;;;;5045469;28;19959;-67
2021/12/31 10:38:06;;;;;;;;;;;11.50;99.80;;;;;;5050861;28;19986;-67
2021/12/31 10:40:43;;;;;;;;;;;11.50;99.80;;;;;;5055075;28;20012;-67
2021/12/31 10:43:18;;;;;;;;;;;11.50;99.80;;;;;;5042834;28;20326;-67
2021/12/31 10:46:02;;;;;;;;;;;11.50;99.80;;;;;;5046400;28;19923;-67
2021/12/31 10:48:37;;;;;;;;;;;11.50;99.80;;;;;;5048256;28;19970;-67
2021/12/31 10:51:02;;;;;;;;;;;11.50;99.80;;;;;;5049769;28;20344;-67
2021/12/31 10:53:33;;;;;;;;;;;11.60;99.90;;;;;;5044663;28;19970;-67
2021/12/31 10:56:06;;;;;;;;;;;11.60;99.70;;;;;;5047222;28;20497;-67
2021/12/31 10:58:32;;;;;;;;;;;11.60;99.70;;;;;;5045095;28;19920;-67
2021/12/31 11:00:59;;;;;;;;;;;11.60;99.70;;;;;;5040116;28;19916;-67
2021/12/31 11:03:25;;;;;;;;;;;11.60;99.70;;;;;;5043072;28;20554;-67
2021/12/31 11:05:50;;;;;;;;;;;11.60;99.80;;;;;;5041499;28;19920;-67
2021/12/31 11:08:16;;;;;;;;;;;11.60;99.80;;;;;;5020064;28;19921;-67
2021/12/31 11:10:42;;;;;;;;;;;11.60;99.70;;;;;;5041395;28;19927;-67
2021/12/31 11:13:09;;;;;;;;;;;11.60;99.70;;;;;;5039820;28;19917;-67
2021/12/31 11:15:35;;;;;;;;;;;11.70;99.70;;;;;;5049873;28;19928;-67
2021/12/31 11:18:00;;;;;;;;;;;11.60;99.70;;;;;;5046193;28;19921;-67
2021/12/31 11:20:26;;;;;;;;;;;11.70;99.80;;;;;;5048015;28;20401;-67
2021/12/31 11:22:52;;;;;;;;;;;11.60;99.70;;;;;;5048996;28;19913;-67
2021/12/31 11:25:17;;;;;;;;;;;11.60;99.80;;;;;;5050358;28;19997;-67
2021/12/31 11:27:47;;;;;;;;;;;11.60;99.80;;;;;;5049805;28;19920;-67
2021/12/31 11:30:25;;;;;;;;;;;11.60;99.80;;;;;;5049055;28;20570;-67
2021/12/31 11:32:56;;;;;;;;;;;11.60;99.80;;;;;;5051024;28;19916;-67
2021/12/31 11:35:43;;;;;;;;;;;11.60;99.90;;;;;;5042613;28;19917;-67
2021/12/31 11:38:10;;;;;;;;;;;11.60;99.90;;;;;;5048990;28;19909;-67
2021/12/31 11:40:36;;;;;;;;;;;11.60;99.90;;;;;;5041631;28;20400;-67
2021/12/31 11:43:14;;;;;;;;;;;11.60;99.90;;;;;;5044090;28;19930;-67
2021/12/31 11:45:40;;;;;;;;;;;11.60;99.90;;;;;;5046864;28;19932;-67
2021/12/31 11:48:33;;;;;;;;;;;11.60;99.90;;;;;;5048400;28;21440;-67
2021/12/31 11:51:05;;;;;;;;;;;11.60;99.90;;;;;;5018052;28;20350;-67
2021/12/31 11:53:31;;;;;;;;;;;11.60;99.80;;;;;;5043845;28;19912;-67
2021/12/31 11:55:56;;;;;;;;;;;11.70;99.80;;;;;;5045342;28;19931;-67
2021/12/31 11:58:35;;;;;;;;;;;11.60;99.80;;;;;;5051081;28;19915;-67
2021/12/31 12:01:20;;;;;;;;;;;11.70;99.80;;;;;;5044921;28;19942;-67
2021/12/31 12:03:46;;;;;;;;;;;11.70;99.70;;;;;;5046333;28;19913;-67
2021/12/31 12:06:31;;;;;;;;;;;11.70;99.70;;;;;;5027624;28;19917;-67
2021/12/31 12:08:56;;;;;;;;;;;11.70;99.60;;;;;;5045101;28;19916;-67
2021/12/31 12:11:51;;;;;;;;;;;11.80;99.60;;;;;;5044589;28;19921;-67
2021/12/31 12:14:35;;;;;;;;;;;11.70;99.50;;;;;;5014002;28;19917;-67
2021/12/31 12:17:02;;;;;;;;;;;11.80;99.50;;;;;;5046550;28;19917;-67
2021/12/31 12:19:46;;;;;;;;;;;11.80;99.50;;;;;;5042588;28;19913;-67
2021/12/31 12:22:27;;;;;;;;;;;11.80;99.50;;;;;;5046213;28;20417;-67
2021/12/31 12:24:54;;;;;;;;;;;11.80;99.50;;;;;;5049547;28;19928;-67
2021/12/31 12:27:20;;;;;;;;;;;11.80;99.50;;;;;;5045919;28;20266;-67
2021/12/31 12:29:46;;;;;;;;;;;11.80;99.50;;;;;;5045767;28;20263;-67
2021/12/31 12:32:12;;;;;;;;;;;11.80;99.50;;;;;;5047436;28;19916;-67
2021/12/31 12:34:38;;;;;;;;;;;11.80;99.50;;;;;;5047857;28;20539;-66
2021/12/31 12:37:03;;;;;;;;;;;11.90;99.50;;;;;;5045841;28;19962;-68
2021/12/31 12:39:32;;;;;;;;;;;11.90;99.30;;;;;;5044555;28;20003;-67
2021/12/31 12:41:57;;;;;;;;;;;11.90;99.30;;;;;;5030423;28;19921;-67
2021/12/31 12:44:23;;;;;;;;;;;11.90;99.40;;;;;;5033129;28;19970;-67
2021/12/31 12:46:52;;;;;;;;;;;11.90;99.30;;;;;;5047163;28;20028;-67
2021/12/31 12:49:18;;;;;;;;;;;11.90;99.30;;;;;;5049864;28;19917;-67
2021/12/31 12:51:44;;;;;;;;;;;12.00;99.30;;;;;;5029739;28;20011;-67
2021/12/31 12:54:13;;;;;;;;;;;12.00;99.30;;;;;;5047200;28;19919;-67
2021/12/31 12:56:39;;;;;;;;;;;12.00;99.30;;;;;;5051957;28;20023;-67
2021/12/31 12:59:05;;;;;;;;;;;12.00;99.30;;;;;;5049235;28;20545;-67
2021/12/31 13:01:32;;;;;;;;;;;12.00;99.40;;;;;;5051912;28;20003;-67
2021/12/31 13:03:58;;;;;;;;;;;12.00;99.40;;;;;;5047414;28;19913;-67
2021/12/31 13:06:24;;;;;;;;;;;11.90;99.30;;;;;;5049062;28;19936;-67
2021/12/31 13:09:03;;;;;;;;;;;12.00;99.40;;;;;;5066282;28;19924;-67
2021/12/31 13:11:30;;;;;;;;;;;12.00;99.40;;;;;;5051108;28;19917;-67
2021/12/31 13:13:55;;;;;;;;;;;11.90;99.50;;;;;;5046435;28;19913;-67
2021/12/31 13:16:21;;;;;;;;;;;11.90;99.50;;;;;;5052896;28;19924;-67
2021/12/31 13:18:54;;;;;;;;;;;11.90;99.40;;;;;;5032469;28;20270;-67
2021/12/31 13:21:21;;;;;;;;;;;11.90;99.40;;;;;;5052393;28;19921;-67
2021/12/31 13:23:51;;;;;;;;;;;11.90;99.50;;;;;;5044696;28;19920;-67
2021/12/31 13:26:25;;;;;;;;;;;11.90;99.60;;;;;;5050230;28;20797;-67
2021/12/31 13:28:50;;;;;;;;;;;11.90;99.90;;;;;;5046620;28;20365;-67
2021/12/31 13:31:16;;;;;;;;;;;11.90;99.70;;;;;;5052844;28;19916;-69
2021/12/31 13:33:42;;;;;;;;;;;11.90;99.70;;;;;;5049535;28;20397;-69
2021/12/31 13:36:08;;;;;;;;;;;11.90;99.40;;;;;;5050002;28;19917;-69
2021/12/31 13:38:52;;;;;;;;;;;11.90;99.40;;;;;;5043248;28;19919;-69
2021/12/31 13:41:21;;;;;;;;;;;11.90;99.40;;;;;;5049224;28;19935;-69
2021/12/31 13:43:53;;;;;;;;;;;11.90;99.40;;;;;;5046709;28;20623;-69
2021/12/31 13:46:19;;;;;;;;;;;12.00;99.50;;;;;;5049870;28;19966;-69
2021/12/31 13:48:44;;;;;;;;;;;11.90;99.50;;;;;;5050840;28;19936;-69
2021/12/31 13:51:26;;;;;;;;;;;11.90;99.50;;;;;;5046387;28;19955;-69
2021/12/31 13:53:52;;;;;;;;;;;11.90;99.50;;;;;;5050618;28;19919;-69
2021/12/31 13:56:17;;;;;;;;;;;11.90;99.40;;;;;;5045653;28;19916;-69
2021/12/31 13:58:43;;;;;;;;;;;12.00;99.50;;;;;;5052887;28;19917;-69
2021/12/31 14:01:14;;;;;;;;;;;11.90;99.50;;;;;;5047213;28;19958;-69
2021/12/31 14:03:40;;;;;;;;;;;12.00;99.50;;;;;;5056692;28;19913;-69
2021/12/31 14:06:14;;;;;;;;;;;12.00;99.50;;;;;;5048379;28;19927;-69
2021/12/31 14:08:42;;;;;;;;;;;11.90;99.50;;;;;;5052054;28;19920;-69
2021/12/31 14:11:07;;;;;;;;;;;11.90;99.50;;;;;;5048470;28;19917;-69
2021/12/31 14:13:41;;;;;;;;;;;11.90;99.50;;;;;;5051844;28;20274;-69
2021/12/31 14:16:06;;;;;;;;;;;11.90;99.60;;;;;;5047639;28;19916;-69
2021/12/31 14:18:32;;;;;;;;;;;11.90;99.60;;;;;;5049716;28;19943;-69
2021/12/31 14:20:57;;;;;;;;;;;11.90;99.60;;;;;;5048899;28;20439;-69